Time;durP1;ratioP1;P1;durP2;ratioP2;P2;SDS_P1;SDS_P2;PMS_P1;PMS_P2;Temp;Humidity;BMP_temperature;BMP_pressure;BME280_temperature;BME280_humidity;BME280_pressure;Samples;Min_cycle;Max_cycle;Signal;HPM_P1;HPM_P2
2023/03/21 00:01:37;;;;;;;;;;;;;;;7.56;72.78;97118.27;108717;1251;101329;-72
2023/03/21 00:04:05;;;;;;;;;;;;;;;7.58;72.81;97114.27;108885;1251;100263;-72
2023/03/21 00:06:33;;;;;;;;;;;;;;;7.61;72.94;97113.69;108898;1251;95669;-72
2023/03/21 00:09:01;;;;;;;;;;;;;;;7.62;72.84;97110.51;108916;1251;95643;-73
2023/03/21 00:11:29;;;;;;;;;;;;;;;7.64;72.86;97110.98;108873;1251;103388;-72
2023/03/21 00:14:01;;;;;;;;;;;;;;;7.64;72.90;97103.33;108702;1251;101849;-74
2023/03/21 00:16:30;;;;;;;;;;;;;;;7.60;72.97;97099.90;108846;1251;99955;-73
2023/03/21 00:18:58;;;;;;;;;;;;;;;7.59;73.03;97099.48;108697;1253;95661;-73
2023/03/21 00:21:31;;;;;;;;;;;;;;;7.60;73.07;97100.08;108910;1251;95662;-73
2023/03/21 00:23:59;;;;;;;;;;;;;;;7.62;73.06;97098.98;108912;1251;103382;-72
2023/03/21 00:26:27;;;;;;;;;;;;;;;7.62;73.09;97097.66;108875;1251;100994;-73
2023/03/21 00:28:55;;;;;;;;;;;;;;;7.63;73.03;97098.77;108913;1251;100088;-73
2023/03/21 00:31:23;;;;;;;;;;;;;;;7.64;73.11;97095.56;108834;1251;95497;-72
2023/03/21 00:33:51;;;;;;;;;;;;;;;7.66;73.13;97089.87;108927;1251;95641;-73
2023/03/21 00:36:20;;;;;;;;;;;;;;;7.66;73.33;97092.88;108909;1251;103410;-74
2023/03/21 00:38:48;;;;;;;;;;;;;;;7.64;73.39;97090.36;108946;1250;100298;-73
2023/03/21 00:41:16;;;;;;;;;;;;;;;7.61;73.25;97085.43;108916;1251;99772;-73
2023/03/21 00:43:45;;;;;;;;;;;;;;;7.60;73.34;97083.38;108850;1251;95556;-73
2023/03/21 00:46:13;;;;;;;;;;;;;;;7.61;73.38;97083.94;108868;1251;95675;-74
2023/03/21 00:48:40;;;;;;;;;;;;;;;7.62;73.34;97081.34;108910;1250;102248;-73
2023/03/21 00:51:20;;;;;;;;;;;;;;;7.63;73.56;97083.70;108918;1251;101438;-73
2023/03/21 00:53:48;;;;;;;;;;;;;;;7.61;73.59;97081.83;108701;1251;99963;-72
2023/03/21 00:56:16;;;;;;;;;;;;;;;7.56;73.65;97083.89;108924;1251;95869;-74
2023/03/21 00:58:44;;;;;;;;;;;;;;;7.52;73.75;97079.89;108920;1251;95652;-74
2023/03/21 01:01:12;;;;;;;;;;;;;;;7.52;73.79;97081.14;108893;1251;103603;-72
2023/03/21 01:03:49;;;;;;;;;;;;;;;7.54;73.82;97083.26;108689;1251;101439;-73
2023/03/21 01:06:19;;;;;;;;;;;;;;;7.52;73.85;97078.28;108869;1251;99819;-74
2023/03/21 01:08:48;;;;;;;;;;;;;;;7.50;74.07;97079.54;108845;1251;95587;-73
2023/03/21 01:11:18;;;;;;;;;;;;;;;7.49;74.02;97075.88;108926;1251;95639;-73
2023/03/21 01:13:46;;;;;;;;;;;;;;;7.50;74.15;97075.41;108873;1251;103486;-73
2023/03/21 01:16:14;;;;;;;;;;;;;;;7.50;74.10;97074.42;108954;1250;101138;-73
2023/03/21 01:18:42;;;;;;;;;;;;;;;7.51;74.13;97070.72;108861;1251;99817;-74
2023/03/21 01:21:12;;;;;;;;;;;;;;;7.52;74.15;97072.79;108769;1253;95911;-74
2023/03/21 01:23:41;;;;;;;;;;;;;;;7.51;74.18;97073.44;108919;1251;95744;-74
2023/03/21 01:26:10;;;;;;;;;;;;;;;7.50;74.31;97074.25;108903;1251;104001;-73
2023/03/21 01:28:39;;;;;;;;;;;;;;;7.48;74.48;97071.00;108839;1251;101606;-73
2023/03/21 01:31:08;;;;;;;;;;;;;;;7.48;74.47;97076.42;108863;1251;100097;-74
2023/03/21 01:33:36;;;;;;;;;;;;;;;7.48;74.41;97077.38;108896;1251;95506;-73
2023/03/21 01:36:04;;;;;;;;;;;;;;;7.47;74.53;97073.57;108887;1252;96713;-72
2023/03/21 01:38:32;;;;;;;;;;;;;;;7.45;74.50;97068.89;108980;1251;103259;-73
2023/03/21 01:41:02;;;;;;;;;;;;;;;7.45;74.62;97063.55;108919;1251;100781;-72
2023/03/21 01:43:31;;;;;;;;;;;;;;;7.44;74.56;97060.73;108689;1251;99626;-74
2023/03/21 01:46:08;;;;;;;;;;;;;;;7.44;74.51;97057.55;108891;1251;95588;-73
2023/03/21 01:48:43;;;;;;;;;;;;;;;7.43;74.67;97061.23;108663;1251;96004;-73
2023/03/21 01:51:12;;;;;;;;;;;;;;;7.46;74.62;97068.27;108666;1251;104057;-72
2023/03/21 01:53:40;;;;;;;;;;;;;;;7.49;74.60;97073.67;108867;1251;100684;-73
2023/03/21 01:56:35;;;;;;;;;;;;;;;7.48;74.58;97076.66;108882;1251;100083;-74
2023/03/21 01:59:08;;;;;;;;;;;;;;;7.45;74.58;97075.30;108379;1257;95583;-73
2023/03/21 02:01:37;;;;;;;;;;;;;;;7.44;74.68;97074.78;108221;1257;95687;-75
2023/03/21 02:04:07;;;;;;;;;;;;;;;7.44;74.81;97075.08;108367;1257;103443;-75
2023/03/21 02:06:44;;;;;;;;;;;;;;;7.42;74.86;97069.98;108396;1257;101492;-74
2023/03/21 02:09:14;;;;;;;;;;;;;;;7.42;74.91;97067.33;108364;1257;99684;-75
2023/03/21 02:11:45;;;;;;;;;;;;;;;7.41;74.89;97062.00;108331;1257;95761;-74
2023/03/21 02:14:15;;;;;;;;;;;;;;;7.41;74.98;97059.35;108326;1256;96523;-74
2023/03/21 02:16:43;;;;;;;;;;;;;;;7.42;74.96;97056.92;108359;1257;103721;-75
2023/03/21 02:19:11;;;;;;;;;;;;;;;7.44;75.01;97057.92;108371;1257;101191;-74
2023/03/21 02:21:50;;;;;;;;;;;;;;;7.44;75.10;97055.94;108364;1257;99702;-76
2023/03/21 02:24:33;;;;;;;;;;;;;;;7.42;75.04;97058.66;108379;1257;95677;-75
2023/03/21 02:27:09;;;;;;;;;;;;;;;7.44;75.12;97058.50;108358;1257;95674;-75
2023/03/21 02:29:43;;;;;;;;;;;;;;;7.46;75.18;97060.38;108339;1257;103271;-75
2023/03/21 02:32:14;;;;;;;;;;;;;;;7.43;75.25;97053.42;108400;1257;101291;-76
2023/03/21 02:35:05;;;;;;;;;;;;;;;7.41;75.18;97057.58;108366;1257;99331;-76
2023/03/21 02:37:41;;;;;;;;;;;;;;;7.39;75.31;97054.23;108328;1256;95998;-75
2023/03/21 02:40:12;;;;;;;;;;;;;;;7.36;75.38;97054.30;108429;1257;95700;-76
2023/03/21 02:42:56;;;;;;;;;;;;;;;7.36;75.43;97061.52;108380;1257;103775;-75
2023/03/21 02:45:33;;;;;;;;;;;;;;;7.34;75.53;97064.92;108403;1257;101086;-75
2023/03/21 02:48:08;;;;;;;;;;;;;;;7.31;75.57;97061.17;108336;1257;99996;-76
2023/03/21 02:50:36;;;;;;;;;;;;;;;7.31;75.57;97063.85;108343;1256;95701;-76
2023/03/21 02:53:07;;;;;;;;;;;;;;;7.32;75.61;97064.73;108371;1257;95663;-76
2023/03/21 02:55:36;;;;;;;;;;;;;;;7.31;75.66;97067.12;108359;1257;103216;-75
2023/03/21 02:58:08;;;;;;;;;;;;;;;7.33;75.65;97066.23;108418;1256;101390;-76
2023/03/21 03:00:36;;;;;;;;;;;;;;;7.33;75.64;97067.02;108165;1257;99212;-76
2023/03/21 03:03:04;;;;;;;;;;;;;;;7.31;75.75;97067.61;108285;1257;96063;-76
2023/03/21 03:05:36;;;;;;;;;;;;;;;7.28;75.78;97071.77;108357;1257;96535;-75
2023/03/21 03:08:03;;;;;;;;;;;;;;;7.29;75.81;97071.35;108421;1257;103844;-75
2023/03/21 03:10:40;;;;;;;;;;;;;;;7.28;75.88;97076.30;108392;1257;101566;-76
2023/03/21 03:13:15;;;;;;;;;;;;;;;7.29;75.87;97078.05;108341;1256;100072;-76
2023/03/21 03:15:52;;;;;;;;;;;;;;;7.30;75.88;97081.44;108735;1251;95711;-75
2023/03/21 03:18:39;;;;;;;;;;;;;;;7.31;75.89;97085.98;108920;1251;95647;-75
2023/03/21 03:21:07;;;;;;;;;;;;;;;7.31;75.89;97087.15;108915;1250;103904;-75
2023/03/21 03:23:35;;;;;;;;;;;;;;;7.33;76.05;97090.67;108908;1251;100345;-75
2023/03/21 03:26:09;;;;;;;;;;;;;;;7.33;76.18;97086.52;108929;1251;100172;-75
2023/03/21 03:28:39;;;;;;;;;;;;;;;7.33;76.27;97082.42;108858;1251;95695;-75
2023/03/21 03:31:10;;;;;;;;;;;;;;;7.30;76.41;97081.27;108720;1251;95672;-75
2023/03/21 03:33:41;;;;;;;;;;;;;;;7.28;76.37;97077.71;108694;1255;103743;-75
2023/03/21 03:36:10;;;;;;;;;;;;;;;7.27;76.42;97076.59;108692;1253;102424;-75
2023/03/21 03:38:39;;;;;;;;;;;;;;;7.26;76.51;97076.58;108887;1251;99784;-75
2023/03/21 03:41:17;;;;;;;;;;;;;;;7.27;76.57;97074.44;108925;1251;95550;-76
2023/03/21 03:43:52;;;;;;;;;;;;;;;7.27;76.60;97068.79;108965;1251;95558;-74
2023/03/21 03:46:27;;;;;;;;;;;;;;;7.26;76.77;97067.29;108925;1251;103254;-75
2023/03/21 03:48:58;;;;;;;;;;;;;;;7.27;76.72;97060.85;108720;1251;109140;-75
2023/03/21 03:51:29;;;;;;;;;;;;;;;7.29;76.76;97060.25;108881;1251;100106;-74
2023/03/21 03:54:00;;;;;;;;;;;;;;;7.30;76.82;97060.99;108674;1251;95608;-75
2023/03/21 03:56:29;;;;;;;;;;;;;;;7.31;76.83;97060.92;108898;1251;95616;-74
2023/03/21 03:58:57;;;;;;;;;;;;;;;7.31;76.73;97067.45;108973;1251;103335;-76
2023/03/21 04:01:25;;;;;;;;;;;;;;;7.31;76.89;97067.90;108663;1251;101466;-76
2023/03/21 04:03:53;;;;;;;;;;;;;;;7.29;76.88;97067.89;108863;1251;109634;-75
2023/03/21 04:06:21;;;;;;;;;;;;;;;7.30;76.83;97067.64;108899;1251;95542;-74
2023/03/21 04:08:49;;;;;;;;;;;;;;;7.31;76.84;97067.66;108934;1251;95745;-75
2023/03/21 04:11:17;;;;;;;;;;;;;;;7.33;76.93;97070.31;108959;1251;103768;-75
2023/03/21 04:13:45;;;;;;;;;;;;;;;7.33;76.89;97074.15;108921;1251;101377;-75
2023/03/21 04:16:13;;;;;;;;;;;;;;;7.34;76.66;97079.48;108923;1251;100622;-74
2023/03/21 04:18:41;;;;;;;;;;;;;;;7.33;76.81;97084.31;108915;1251;95571;-75
2023/03/21 04:21:13;;;;;;;;;;;;;;;7.30;76.91;97082.84;108926;1251;95579;-76
2023/03/21 04:23:41;;;;;;;;;;;;;;;7.29;76.97;97081.92;108919;1251;103212;-74
2023/03/21 04:26:09;;;;;;;;;;;;;;;7.29;77.14;97079.90;108945;1250;101292;-74
2023/03/21 04:28:39;;;;;;;;;;;;;;;7.27;77.27;97076.95;108890;1251;100038;-74
2023/03/21 04:31:08;;;;;;;;;;;;;;;7.28;77.26;97074.03;108643;1251;95598;-76
2023/03/21 04:33:37;;;;;;;;;;;;;;;7.29;77.10;97074.38;108907;1251;95581;-74
2023/03/21 04:36:08;;;;;;;;;;;;;;;7.31;77.17;97075.34;108947;1251;103339;-75
2023/03/21 04:38:36;;;;;;;;;;;;;;;7.30;77.30;97071.33;108929;1250;101509;-74
2023/03/21 04:41:04;;;;;;;;;;;;;;;7.30;77.22;97076.91;108920;1251;99379;-74
2023/03/21 04:43:32;;;;;;;;;;;;;;;7.31;77.23;97079.14;108714;1254;95804;-75
2023/03/21 04:46:00;;;;;;;;;;;;;;;7.33;77.21;97078.57;108939;1251;96428;-75
2023/03/21 04:48:28;;;;;;;;;;;;;;;7.34;77.22;97075.23;108964;1250;103616;-74
2023/03/21 04:50:57;;;;;;;;;;;;;;;7.35;77.17;97076.98;108974;1251;101860;-75
2023/03/21 04:53:25;;;;;;;;;;;;;;;7.36;77.17;97079.87;108947;1251;99542;-75
2023/03/21 04:55:53;;;;;;;;;;;;;;;7.37;77.11;97081.85;108924;1251;95560;-76
2023/03/21 04:58:21;;;;;;;;;;;;;;;7.39;77.12;97083.92;108931;1251;95768;-74
2023/03/21 05:00:51;;;;;;;;;;;;;;;7.40;77.10;97086.48;108891;1251;102484;-75
2023/03/21 05:03:20;;;;;;;;;;;;;;;7.41;77.09;97088.86;108921;1251;101542;-75
2023/03/21 05:05:48;;;;;;;;;;;;;;;7.41;77.12;97090.17;108869;1251;100079;-74
2023/03/21 05:08:16;;;;;;;;;;;;;;;7.43;77.21;97088.73;108915;1251;95601;-75
2023/03/21 05:10:44;;;;;;;;;;;;;;;7.43;77.13;97090.80;108949;1251;95698;-75
2023/03/21 05:13:12;;;;;;;;;;;;;;;7.42;77.32;97089.56;108849;1251;103209;-74
2023/03/21 05:15:40;;;;;;;;;;;;;;;7.41;77.20;97089.67;108893;1250;101509;-75
2023/03/21 05:18:11;;;;;;;;;;;;;;;7.41;77.24;97086.21;108845;1251;100136;-75
2023/03/21 05:20:41;;;;;;;;;;;;;;;7.41;77.33;97087.53;108849;1251;95543;-75
2023/03/21 05:23:13;;;;;;;;;;;;;;;7.39;77.50;97086.15;108759;1253;95696;-76
2023/03/21 05:25:40;;;;;;;;;;;;;;;7.38;77.57;97083.63;108865;1250;103856;-76
2023/03/21 05:28:08;;;;;;;;;;;;;;;7.36;77.58;97080.08;108895;1251;101122;-74
2023/03/21 05:30:36;;;;;;;;;;;;;;;7.38;77.67;97082.39;108805;1251;99591;-75
2023/03/21 05:33:05;;;;;;;;;;;;;;;7.39;77.64;97080.82;108841;1251;95833;-75
2023/03/21 05:35:33;;;;;;;;;;;;;;;7.39;77.63;97080.00;108723;1251;95665;-76
2023/03/21 05:38:00;;;;;;;;;;;;;;;7.40;77.65;97081.90;108685;1251;103744;-75
2023/03/21 05:40:28;;;;;;;;;;;;;;;7.39;77.63;97085.52;108849;1251;101168;-76
2023/03/21 05:42:57;;;;;;;;;;;;;;;7.40;77.55;97087.94;108845;1251;99899;-74
2023/03/21 05:45:25;;;;;;;;;;;;;;;7.41;77.78;97089.30;108880;1251;95608;-76
2023/03/21 05:47:56;;;;;;;;;;;;;;;7.41;77.84;97088.23;108679;1251;96521;-75
2023/03/21 05:50:24;;;;;;;;;;;;;;;7.42;77.72;97089.45;108861;1251;103433;-74
2023/03/21 05:52:52;;;;;;;;;;;;;;;7.46;77.89;97092.40;108871;1251;101441;-74
2023/03/21 05:55:20;;;;;;;;;;;;;;;7.48;77.89;97095.64;108667;1251;98835;-74
2023/03/21 05:57:48;;;;;;;;;;;;;;;7.48;78.06;97096.42;108832;1251;95666;-75
2023/03/21 06:00:16;;;;;;;;;;;;;;;7.47;78.08;97098.85;108890;1251;95817;-73
2023/03/21 06:02:45;;;;;;;;;;;;;;;7.48;78.05;97096.05;108836;1250;103761;-74
2023/03/21 06:05:13;;;;;;;;;;;;;;;7.50;77.96;97095.41;108784;1251;100845;-74
2023/03/21 06:07:41;;;;;;;;;;;;;;;7.52;77.92;97099.60;108888;1251;100180;-75
2023/03/21 06:10:09;;;;;;;;;;;;;;;7.55;78.01;97099.45;108816;1251;95548;-74
2023/03/21 06:12:37;;;;;;;;;;;;;;;7.58;78.16;97094.36;108839;1251;95764;-74
2023/03/21 06:15:07;;;;;;;;;;;;;;;7.62;78.15;97090.98;108801;1251;103343;-75
2023/03/21 06:17:35;;;;;;;;;;;;;;;7.68;78.05;97094.59;108614;1254;103785;-74
2023/03/21 06:20:05;;;;;;;;;;;;;;;7.73;78.05;97097.46;108758;1251;99782;-76
2023/03/21 06:22:34;;;;;;;;;;;;;;;7.77;78.06;97099.92;108820;1251;95584;-75
2023/03/21 06:25:02;;;;;;;;;;;;;;;7.81;77.84;97102.27;108871;1251;95598;-74
2023/03/21 06:27:31;;;;;;;;;;;;;;;7.87;77.86;97104.42;108871;1251;103295;-74
2023/03/21 06:29:59;;;;;;;;;;;;;;;7.92;77.90;97098.28;108858;1250;101378;-73
2023/03/21 06:32:27;;;;;;;;;;;;;;;7.98;77.86;97094.11;108844;1251;100218;-74
2023/03/21 06:34:55;;;;;;;;;;;;;;;8.04;77.75;97093.55;108812;1251;95779;-73
2023/03/21 06:37:25;;;;;;;;;;;;;;;8.12;77.69;97093.73;108811;1251;95574;-74
2023/03/21 06:39:53;;;;;;;;;;;;;;;8.21;77.66;97096.66;108746;1250;103639;-74
2023/03/21 06:42:21;;;;;;;;;;;;;;;8.30;77.53;97092.55;108838;1251;101243;-75
2023/03/21 06:44:49;;;;;;;;;;;;;;;8.38;77.39;97096.13;108827;1251;100010;-75
2023/03/21 06:47:17;;;;;;;;;;;;;;;8.45;77.35;97099.48;108809;1251;95577;-75
2023/03/21 06:49:45;;;;;;;;;;;;;;;8.53;77.14;97095.09;108606;1252;95703;-74
2023/03/21 06:52:13;;;;;;;;;;;;;;;8.60;76.97;97099.05;108894;1251;103573;-75
2023/03/21 06:54:41;;;;;;;;;;;;;;;8.63;76.86;97100.96;108847;1251;101433;-76
2023/03/21 06:57:10;;;;;;;;;;;;;;;8.63;76.75;97100.59;108875;1251;99517;-76
2023/03/21 06:59:40;;;;;;;;;;;;;;;8.65;76.75;97103.41;108845;1251;95845;-77
2023/03/21 07:02:10;;;;;;;;;;;;;;;8.70;76.65;97102.94;108850;1251;95662;-77
2023/03/21 07:04:38;;;;;;;;;;;;;;;8.77;76.54;97105.56;108858;1251;103800;-76
2023/03/21 07:07:05;;;;;;;;;;;;;;;8.83;76.64;97109.52;108706;1251;102420;-75
2023/03/21 07:09:33;;;;;;;;;;;;;;;8.88;76.68;97107.05;108815;1251;98536;-75
2023/03/21 07:12:01;;;;;;;;;;;;;;;8.94;76.50;97112.42;108855;1251;95617;-75
2023/03/21 07:14:30;;;;;;;;;;;;;;;9.00;76.47;97116.98;108861;1251;95613;-74
2023/03/21 07:16:58;;;;;;;;;;;;;;;9.05;75.92;97119.17;108802;1251;103896;-75
2023/03/21 07:19:26;;;;;;;;;;;;;;;9.09;75.56;97122.35;108832;1251;101493;-75
2023/03/21 07:21:54;;;;;;;;;;;;;;;9.13;75.35;97120.98;108838;1251;99609;-75
2023/03/21 07:24:22;;;;;;;;;;;;;;;9.14;75.46;97120.33;108867;1251;95636;-74
2023/03/21 07:26:50;;;;;;;;;;;;;;;9.16;75.33;97123.73;108885;1251;95748;-76
2023/03/21 07:29:20;;;;;;;;;;;;;;;9.21;75.31;97121.42;108878;1251;103426;-74
2023/03/21 07:31:48;;;;;;;;;;;;;;;9.27;74.98;97117.23;108882;1251;100278;-74
2023/03/21 07:34:17;;;;;;;;;;;;;;;9.28;74.69;97113.92;108809;1251;100257;-75
2023/03/21 07:36:45;;;;;;;;;;;;;;;9.27;74.33;97111.86;108640;1251;95758;-75
2023/03/21 07:39:13;;;;;;;;;;;;;;;9.29;74.54;97110.44;108881;1251;95610;-75
2023/03/21 07:41:41;;;;;;;;;;;;;;;9.34;74.76;97114.81;108662;1251;103860;-75
2023/03/21 07:44:09;;;;;;;;;;;;;;;9.40;74.70;97116.30;108827;1251;100309;-76
2023/03/21 07:46:37;;;;;;;;;;;;;;;9.46;74.59;97115.52;108846;1251;100200;-75
2023/03/21 07:49:07;;;;;;;;;;;;;;;9.52;74.40;97117.45;108498;1252;95927;-75
2023/03/21 07:51:35;;;;;;;;;;;;;;;9.57;74.17;97113.59;108830;1251;95910;-75
2023/03/21 07:54:04;;;;;;;;;;;;;;;9.58;74.05;97115.08;108752;1253;103545;-75
2023/03/21 07:56:32;;;;;;;;;;;;;;;9.62;74.16;97115.86;108869;1251;100068;-75
2023/03/21 07:59:00;;;;;;;;;;;;;;;9.73;74.12;97115.63;108805;1251;99992;-75
2023/03/21 08:01:28;;;;;;;;;;;;;;;9.87;73.92;97111.54;108733;1251;185819;-75
2023/03/21 08:03:56;;;;;;;;;;;;;;;10.01;73.83;97105.63;108857;1251;95986;-73
2023/03/21 08:06:27;;;;;;;;;;;;;;;10.16;73.62;97106.56;108909;1251;103574;-73
2023/03/21 08:08:55;;;;;;;;;;;;;;;10.36;73.53;97104.10;108837;1251;101293;-73
2023/03/21 08:11:23;;;;;;;;;;;;;;;10.63;73.07;97105.12;108841;1251;100067;-73
2023/03/21 08:13:52;;;;;;;;;;;;;;;10.92;72.55;97102.94;108809;1251;96088;-73
2023/03/21 08:16:20;;;;;;;;;;;;;;;11.11;71.76;97101.67;108618;1251;95772;-73
2023/03/21 08:18:48;;;;;;;;;;;;;;;11.32;71.97;97100.43;108856;1251;102584;-73
2023/03/21 08:21:16;;;;;;;;;;;;;;;11.79;71.67;97100.71;108613;1251;100698;-73
2023/03/21 08:23:44;;;;;;;;;;;;;;;12.19;70.84;97095.80;108825;1251;99617;-74
2023/03/21 08:26:14;;;;;;;;;;;;;;;12.69;70.20;97090.98;108842;1251;95568;-74
2023/03/21 08:28:42;;;;;;;;;;;;;;;13.14;69.33;97092.11;108844;1251;95953;-73
2023/03/21 08:31:12;;;;;;;;;;;;;;;13.38;68.33;97091.73;108592;1251;103324;-73
2023/03/21 08:33:40;;;;;;;;;;;;;;;13.61;67.16;97090.39;108848;1251;101349;-73
2023/03/21 08:36:08;;;;;;;;;;;;;;;13.80;66.66;97093.69;108821;1251;99833;-74
2023/03/21 08:38:36;;;;;;;;;;;;;;;13.94;65.76;97091.70;108819;1255;95595;-74
2023/03/21 08:41:04;;;;;;;;;;;;;;;14.00;65.35;97094.75;108788;1251;95661;-73
2023/03/21 08:43:33;;;;;;;;;;;;;;;13.98;64.80;97095.70;108889;1251;103492;-74
2023/03/21 08:46:02;;;;;;;;;;;;;;;13.88;64.72;97099.50;108842;1250;101519;-73
2023/03/21 08:48:30;;;;;;;;;;;;;;;13.76;64.42;97102.77;108832;1251;99431;-73
2023/03/21 08:51:02;;;;;;;;;;;;;;;13.58;64.57;97104.80;108840;1251;95906;-73
2023/03/21 08:53:30;;;;;;;;;;;;;;;13.49;64.47;97108.03;108843;1251;95660;-74
2023/03/21 08:55:58;;;;;;;;;;;;;;;13.47;64.03;97107.27;108842;1253;103732;-74
2023/03/21 08:58:26;;;;;;;;;;;;;;;13.43;64.08;97110.00;108856;1251;101050;-74
2023/03/21 09:00:54;;;;;;;;;;;;;;;13.16;64.22;97109.36;108833;1251;99902;-73
2023/03/21 09:03:22;;;;;;;;;;;;;;;13.02;64.35;97109.77;108794;1251;95585;-74
2023/03/21 09:05:52;;;;;;;;;;;;;;;12.95;64.45;97110.84;108843;1251;96496;-74
2023/03/21 09:08:22;;;;;;;;;;;;;;;12.82;64.52;97115.06;108824;1250;103471;-74
2023/03/21 09:10:53;;;;;;;;;;;;;;;12.77;64.22;97112.73;108849;1251;101138;-73
2023/03/21 09:13:21;;;;;;;;;;;;;;;12.63;64.28;97112.09;108809;1251;99850;-73
2023/03/21 09:15:49;;;;;;;;;;;;;;;12.53;64.20;97111.23;108811;1251;95563;-73
2023/03/21 09:18:37;;;;;;;;;;;;;;;12.47;64.14;97108.08;108852;1251;95892;-73
2023/03/21 09:21:11;;;;;;;;;;;;;;;12.39;64.00;97105.49;108699;1251;102413;-73
2023/03/21 09:23:39;;;;;;;;;;;;;;;12.27;64.40;97107.34;108902;1251;101218;-73
2023/03/21 09:26:08;;;;;;;;;;;;;;;12.30;64.46;97107.32;108838;1251;99952;-75
2023/03/21 09:28:37;;;;;;;;;;;;;;;12.29;64.56;97103.06;108823;1251;95630;-73
2023/03/21 09:31:07;;;;;;;;;;;;;;;12.27;64.31;97103.45;108388;1251;95953;-75
2023/03/21 09:33:35;;;;;;;;;;;;;;;12.27;64.05;97104.33;108868;1251;103460;-74
2023/03/21 09:36:05;;;;;;;;;;;;;;;12.16;63.97;97103.69;108835;1251;101306;-73
2023/03/21 09:38:35;;;;;;;;;;;;;;;11.97;63.99;97105.89;108846;1251;100092;-74
2023/03/21 09:41:20;;;;;;;;;;;;;;;11.88;64.31;97108.40;108819;1251;95862;-74
2023/03/21 09:44:03;;;;;;;;;;;;;;;11.91;64.23;97107.05;108852;1251;95617;-74
2023/03/21 09:46:36;;;;;;;;;;;;;;;11.98;63.87;97105.66;108849;1250;103529;-73
2023/03/21 09:49:11;;;;;;;;;;;;;;;12.04;63.93;97107.30;108824;1251;101683;-73
2023/03/21 09:51:41;;;;;;;;;;;;;;;12.07;63.86;97105.38;108823;1251;99962;-73
2023/03/21 09:54:32;;;;;;;;;;;;;;;12.05;63.45;97107.95;108854;1251;95529;-73
2023/03/21 09:57:04;;;;;;;;;;;;;;;11.75;63.08;97107.71;108866;1251;96373;-73
2023/03/21 09:59:35;;;;;;;;;;;;;;;11.53;63.24;97110.73;108823;1255;103444;-74
2023/03/21 10:02:04;;;;;;;;;;;;;;;11.42;63.60;97114.73;108594;1250;100357;-73
2023/03/21 10:04:32;;;;;;;;;;;;;;;11.22;64.20;97118.98;108661;1251;101142;-73
2023/03/21 10:07:02;;;;;;;;;;;;;;;10.90;64.78;97120.77;108803;1251;95782;-74
2023/03/21 10:09:47;;;;;;;;;;;;;;;10.60;65.65;97121.87;108627;1251;95738;-74
2023/03/21 10:12:23;;;;;;;;;;;;;;;10.38;66.46;97121.56;108811;1251;112103;-72
2023/03/21 10:14:56;;;;;;;;;;;;;;;10.31;67.21;97123.83;108842;1251;101262;-73
2023/03/21 10:17:32;;;;;;;;;;;;;;;10.30;67.53;97127.08;108811;1251;99827;-73
2023/03/21 10:20:20;;;;;;;;;;;;;;;10.33;67.89;97129.52;108824;1251;95578;-73
2023/03/21 10:22:49;;;;;;;;;;;;;;;10.42;68.13;97126.39;108731;1253;95719;-72
2023/03/21 10:25:20;;;;;;;;;;;;;;;10.45;68.12;97128.52;108840;1251;103478;-73
2023/03/21 10:27:50;;;;;;;;;;;;;;;10.44;68.39;97127.62;108843;1251;101486;-73
2023/03/21 10:30:25;;;;;;;;;;;;;;;10.50;68.43;97125.13;108812;1251;100140;-73
2023/03/21 10:32:54;;;;;;;;;;;;;;;10.55;68.26;97124.98;108835;1251;95556;-73
2023/03/21 10:35:22;;;;;;;;;;;;;;;10.53;68.43;97128.55;108670;1251;96483;-74
2023/03/21 10:37:50;;;;;;;;;;;;;;;10.47;68.56;97133.24;108851;1251;102574;-74
2023/03/21 10:40:18;;;;;;;;;;;;;;;10.39;68.52;97134.37;108916;1251;101137;-72
2023/03/21 10:42:46;;;;;;;;;;;;;;;10.33;68.70;97130.59;108832;1251;99835;-73
2023/03/21 10:45:17;;;;;;;;;;;;;;;10.28;68.78;97134.67;108826;1251;95768;-73
2023/03/21 10:47:47;;;;;;;;;;;;;;;10.25;69.01;97138.78;108619;1251;95776;-73
2023/03/21 10:50:18;;;;;;;;;;;;;;;10.26;69.13;97135.74;108878;1251;103499;-73
2023/03/21 10:52:51;;;;;;;;;;;;;;;10.27;69.15;97135.88;108845;1251;101722;-73
2023/03/21 10:55:20;;;;;;;;;;;;;;;10.27;69.14;97137.55;108810;1251;108080;-73
2023/03/21 10:57:48;;;;;;;;;;;;;;;10.29;68.85;97137.58;108787;1251;95550;-73
2023/03/21 11:00:22;;;;;;;;;;;;;;;10.33;68.67;97137.90;108813;1251;95665;-74
2023/03/21 11:02:51;;;;;;;;;;;;;;;10.36;68.63;97138.42;108862;1250;103715;-73
2023/03/21 11:05:25;;;;;;;;;;;;;;;10.34;68.77;97141.39;108848;1251;101517;-73
2023/03/21 11:08:00;;;;;;;;;;;;;;;10.31;68.81;97146.20;108854;1251;100079;-74
2023/03/21 11:10:30;;;;;;;;;;;;;;;10.22;68.75;97147.08;108819;1251;95543;-73
2023/03/21 11:13:01;;;;;;;;;;;;;;;10.13;68.78;97147.02;108890;1251;95787;-74
2023/03/21 11:15:29;;;;;;;;;;;;;;;10.09;68.80;97148.45;108710;1250;102501;-73
2023/03/21 11:18:13;;;;;;;;;;;;;;;10.09;68.83;97148.41;108814;1250;101111;-72
2023/03/21 11:21:07;;;;;;;;;;;;;;;10.08;68.86;97149.77;108801;1251;99779;-74
2023/03/21 11:23:39;;;;;;;;;;;;;;;10.03;69.08;97150.26;108193;1259;95835;-73
2023/03/21 11:26:10;;;;;;;;;;;;;;;10.00;69.36;97151.06;108216;1259;95694;-73
2023/03/21 11:28:39;;;;;;;;;;;;;;;9.98;69.59;97148.17;108169;1259;102291;-73
2023/03/21 11:31:08;;;;;;;;;;;;;;;9.91;69.73;97146.61;108244;1259;101386;-73
2023/03/21 11:33:39;;;;;;;;;;;;;;;9.89;69.86;97147.29;108197;1259;99990;-73
2023/03/21 11:36:19;;;;;;;;;;;;;;;9.92;69.93;97145.31;108139;1259;95604;-74
2023/03/21 11:38:56;;;;;;;;;;;;;;;9.92;70.10;97138.47;108109;1259;95857;-74
2023/03/21 11:41:32;;;;;;;;;;;;;;;9.83;70.19;97139.42;108234;1259;103597;-73
2023/03/21 11:44:01;;;;;;;;;;;;;;;9.78;70.32;97138.11;108235;1259;101440;-75
2023/03/21 11:46:30;;;;;;;;;;;;;;;9.74;70.53;97139.63;108068;1259;99376;-73
2023/03/21 11:48:59;;;;;;;;;;;;;;;9.60;70.58;97133.81;108180;1259;95730;-72
2023/03/21 11:51:30;;;;;;;;;;;;;;;9.59;71.04;97133.52;108215;1259;95696;-73
2023/03/21 11:54:10;;;;;;;;;;;;;;;9.62;71.32;97135.48;108230;1259;103450;-73
2023/03/21 11:56:42;;;;;;;;;;;;;;;9.67;71.36;97132.14;108109;1259;101326;-73
2023/03/21 11:59:14;;;;;;;;;;;;;;;9.73;71.34;97126.89;108198;1259;100192;-73
2023/03/21 12:01:56;;;;;;;;;;;;;;;9.78;71.63;97124.68;108665;1251;95577;-73
2023/03/21 12:04:33;;;;;;;;;;;;;;;9.88;71.90;97124.89;108878;1251;95699;-73
2023/03/21 12:07:09;;;;;;;;;;;;;;;9.97;71.94;97126.52;108791;1251;102513;-73
2023/03/21 12:09:43;;;;;;;;;;;;;;;10.01;72.09;97122.64;108859;1251;101328;-73
2023/03/21 12:12:30;;;;;;;;;;;;;;;10.00;72.20;97120.11;108796;1251;99045;-73
2023/03/21 12:15:03;;;;;;;;;;;;;;;10.09;72.22;97116.54;108790;1251;95552;-73
2023/03/21 12:17:41;;;;;;;;;;;;;;;10.21;72.10;97117.41;108780;1251;95632;-73
2023/03/21 12:20:11;;;;;;;;;;;;;;;10.29;71.68;97113.60;108837;1251;103414;-74
2023/03/21 12:22:51;;;;;;;;;;;;;;;10.38;71.55;97112.42;108869;1251;101293;-74
2023/03/21 12:25:22;;;;;;;;;;;;;;;10.48;71.11;97113.14;108829;1251;99619;-73
2023/03/21 12:27:58;;;;;;;;;;;;;;;10.54;70.70;97112.64;108855;1251;95520;-73
2023/03/21 12:30:44;;;;;;;;;;;;;;;10.52;70.32;97103.95;108753;1251;95683;-74
2023/03/21 12:33:28;;;;;;;;;;;;;;;10.47;70.41;97102.86;108828;1251;102636;-73
2023/03/21 12:35:59;;;;;;;;;;;;;;;10.44;70.52;97100.88;108804;1251;101502;-73
2023/03/21 12:38:34;;;;;;;;;;;;;;;10.45;70.50;97099.42;108814;1251;99843;-72
2023/03/21 12:41:32;;;;;;;;;;;;;;;10.45;70.27;97094.70;108791;1251;95528;-72
2023/03/21 12:44:05;;;;;;;;;;;;;;;10.48;69.93;97094.73;108201;1260;96600;-72
2023/03/21 12:46:43;;;;;;;;;;;;;;;10.45;69.99;97090.70;108260;1259;103635;-72
2023/03/21 12:49:30;;;;;;;;;;;;;;;10.45;69.82;97091.66;108236;1259;101336;-73
2023/03/21 12:52:01;;;;;;;;;;;;;;;10.42;69.64;97089.36;108237;1259;99985;-72
2023/03/21 12:54:36;;;;;;;;;;;;;;;10.41;69.58;97087.98;108190;1259;95717;-72
2023/03/21 12:57:08;;;;;;;;;;;;;;;10.41;69.63;97087.27;108238;1259;95881;-73